sensor_id;sensor_type;location;lat;lon;timestamp;P1;durP1;ratioP1;P2;durP2;ratioP2
10945;SDS011;5525;42.648;23.368;2023-04-01T00:01:07;14.30;;;7.95;;
10945;SDS011;5525;42.648;23.368;2023-04-01T00:03:34;13.90;;;7.57;;
10945;SDS011;5525;42.648;23.368;2023-04-01T00:06:01;12.90;;;6.95;;
10945;SDS011;5525;42.648;23.368;2023-04-01T00:08:28;13.45;;;8.18;;
10945;SDS011;5525;42.648;23.368;2023-04-01T00:10:54;13.05;;;7.65;;
10945;SDS011;5525;42.648;23.368;2023-04-01T00:13:22;9.60;;;7.72;;
10945;SDS011;5525;42.648;23.368;2023-04-01T00:15:52;15.18;;;8.93;;
10945;SDS011;5525;42.648;23.368;2023-04-01T00:18:19;13.30;;;8.82;;
10945;SDS011;5525;42.648;23.368;2023-04-01T00:20:47;13.40;;;9.10;;
10945;SDS011;5525;42.648;23.368;2023-04-01T00:23:15;13.65;;;8.60;;
10945;SDS011;5525;42.648;23.368;2023-04-01T00:25:43;12.18;;;8.25;;
10945;SDS011;5525;42.648;23.368;2023-04-01T00:28:10;13.02;;;8.18;;
10945;SDS011;5525;42.648;23.368;2023-04-01T00:30:37;13.60;;;8.25;;
10945;SDS011;5525;42.648;23.368;2023-04-01T00:33:05;10.48;;;8.07;;
10945;SDS011;5525;42.648;23.368;2023-04-01T00:35:32;10.68;;;8.07;;
10945;SDS011;5525;42.648;23.368;2023-04-01T00:37:59;13.48;;;8.13;;
10945;SDS011;5525;42.648;23.368;2023-04-01T00:40:27;11.07;;;8.05;;
10945;SDS011;5525;42.648;23.368;2023-04-01T00:42:55;11.20;;;7.30;;
10945;SDS011;5525;42.648;23.368;2023-04-01T00:45:29;13.38;;;7.85;;
10945;SDS011;5525;42.648;23.368;2023-04-01T00:47:59;10.65;;;7.43;;
10945;SDS011;5525;42.648;23.368;2023-04-01T00:50:31;13.43;;;7.43;;
10945;SDS011;5525;42.648;23.368;2023-04-01T00:53:00;11.88;;;7.50;;
10945;SDS011;5525;42.648;23.368;2023-04-01T00:55:28;10.95;;;7.13;;
10945;SDS011;5525;42.648;23.368;2023-04-01T00:57:56;12.00;;;7.05;;
10945;SDS011;5525;42.648;23.368;2023-04-01T01:00:26;10.90;;;7.32;;
10945;SDS011;5525;42.648;23.368;2023-04-01T01:02:53;11.55;;;7.22;;
10945;SDS011;5525;42.648;23.368;2023-04-01T01:05:21;10.43;;;7.20;;
10945;SDS011;5525;42.648;23.368;2023-04-01T01:07:59;9.48;;;6.85;;
10945;SDS011;5525;42.648;23.368;2023-04-01T01:10:29;11.40;;;6.55;;
10945;SDS011;5525;42.648;23.368;2023-04-01T01:13:00;8.85;;;5.65;;
10945;SDS011;5525;42.648;23.368;2023-04-01T01:15:34;7.63;;;5.68;;
10945;SDS011;5525;42.648;23.368;2023-04-01T01:18:09;9.55;;;5.90;;
10945;SDS011;5525;42.648;23.368;2023-04-01T01:21:00;9.20;;;5.43;;
10945;SDS011;5525;42.648;23.368;2023-04-01T01:23:53;9.65;;;5.40;;
10945;SDS011;5525;42.648;23.368;2023-04-01T01:26:44;9.05;;;5.78;;
10945;SDS011;5525;42.648;23.368;2023-04-01T01:29:30;10.02;;;5.28;;
10945;SDS011;5525;42.648;23.368;2023-04-01T01:32:11;7.53;;;5.00;;
10945;SDS011;5525;42.648;23.368;2023-04-01T01:34:52;9.48;;;5.30;;
10945;SDS011;5525;42.648;23.368;2023-04-01T01:37:25;9.75;;;5.28;;
10945;SDS011;5525;42.648;23.368;2023-04-01T01:39:55;6.43;;;4.60;;
10945;SDS011;5525;42.648;23.368;2023-04-01T01:42:26;8.00;;;5.20;;
10945;SDS011;5525;42.648;23.368;2023-04-01T01:44:55;5.65;;;3.97;;
10945;SDS011;5525;42.648;23.368;2023-04-01T01:47:25;11.95;;;6.13;;
10945;SDS011;5525;42.648;23.368;2023-04-01T01:49:54;8.38;;;5.20;;
10945;SDS011;5525;42.648;23.368;2023-04-01T01:52:22;8.05;;;4.93;;
10945;SDS011;5525;42.648;23.368;2023-04-01T01:54:52;9.18;;;4.68;;
10945;SDS011;5525;42.648;23.368;2023-04-01T01:57:22;8.90;;;4.65;;
10945;SDS011;5525;42.648;23.368;2023-04-01T01:59:51;6.35;;;3.85;;
10945;SDS011;5525;42.648;23.368;2023-04-01T02:02:20;7.53;;;3.83;;
10945;SDS011;5525;42.648;23.368;2023-04-01T02:04:48;6.82;;;4.38;;
10945;SDS011;5525;42.648;23.368;2023-04-01T02:07:18;10.18;;;5.13;;
10945;SDS011;5525;42.648;23.368;2023-04-01T02:09:47;8.95;;;4.50;;
10945;SDS011;5525;42.648;23.368;2023-04-01T02:12:16;5.00;;;3.92;;
10945;SDS011;5525;42.648;23.368;2023-04-01T02:14:47;7.85;;;4.03;;
10945;SDS011;5525;42.648;23.368;2023-04-01T02:17:19;6.47;;;3.58;;
10945;SDS011;5525;42.648;23.368;2023-04-01T02:19:47;6.53;;;3.83;;
10945;SDS011;5525;42.648;23.368;2023-04-01T02:22:18;7.15;;;3.72;;
10945;SDS011;5525;42.648;23.368;2023-04-01T02:24:48;5.45;;;3.92;;
10945;SDS011;5525;42.648;23.368;2023-04-01T02:27:18;4.90;;;3.50;;
10945;SDS011;5525;42.648;23.368;2023-04-01T02:29:46;8.02;;;3.60;;
10945;SDS011;5525;42.648;23.368;2023-04-01T02:32:13;6.78;;;3.53;;
10945;SDS011;5525;42.648;23.368;2023-04-01T02:34:41;8.60;;;3.40;;
10945;SDS011;5525;42.648;23.368;2023-04-01T02:37:08;5.97;;;3.30;;
10945;SDS011;5525;42.648;23.368;2023-04-01T02:39:37;7.05;;;4.28;;
10945;SDS011;5525;42.648;23.368;2023-04-01T02:42:04;8.40;;;4.30;;
10945;SDS011;5525;42.648;23.368;2023-04-01T02:44:32;5.28;;;3.85;;
10945;SDS011;5525;42.648;23.368;2023-04-01T02:46:59;8.63;;;4.07;;
10945;SDS011;5525;42.648;23.368;2023-04-01T02:49:26;8.18;;;4.15;;
10945;SDS011;5525;42.648;23.368;2023-04-01T02:51:52;9.95;;;4.40;;
10945;SDS011;5525;42.648;23.368;2023-04-01T02:54:19;7.88;;;4.28;;
10945;SDS011;5525;42.648;23.368;2023-04-01T02:56:46;7.60;;;4.22;;
10945;SDS011;5525;42.648;23.368;2023-04-01T02:59:14;7.28;;;4.18;;
10945;SDS011;5525;42.648;23.368;2023-04-01T03:01:42;8.93;;;4.57;;
10945;SDS011;5525;42.648;23.368;2023-04-01T03:04:09;6.75;;;4.35;;
10945;SDS011;5525;42.648;23.368;2023-04-01T03:06:35;7.90;;;4.50;;
10945;SDS011;5525;42.648;23.368;2023-04-01T03:09:02;9.95;;;4.38;;
10945;SDS011;5525;42.648;23.368;2023-04-01T03:11:29;6.80;;;4.10;;
10945;SDS011;5525;42.648;23.368;2023-04-01T03:13:56;8.98;;;4.20;;
10945;SDS011;5525;42.648;23.368;2023-04-01T03:16:22;8.38;;;5.13;;
10945;SDS011;5525;42.648;23.368;2023-04-01T03:18:50;5.85;;;4.55;;
10945;SDS011;5525;42.648;23.368;2023-04-01T03:21:19;7.85;;;4.50;;
10945;SDS011;5525;42.648;23.368;2023-04-01T03:23:46;8.48;;;4.78;;
10945;SDS011;5525;42.648;23.368;2023-04-01T03:26:13;10.70;;;4.63;;
10945;SDS011;5525;42.648;23.368;2023-04-01T03:28:40;7.15;;;4.75;;
10945;SDS011;5525;42.648;23.368;2023-04-01T03:31:07;8.57;;;4.50;;
10945;SDS011;5525;42.648;23.368;2023-04-01T03:33:33;9.13;;;5.90;;
10945;SDS011;5525;42.648;23.368;2023-04-01T03:36:02;9.05;;;5.32;;
10945;SDS011;5525;42.648;23.368;2023-04-01T03:38:31;7.88;;;5.10;;
10945;SDS011;5525;42.648;23.368;2023-04-01T03:40:58;7.18;;;5.55;;
10945;SDS011;5525;42.648;23.368;2023-04-01T03:43:24;11.13;;;5.72;;
10945;SDS011;5525;42.648;23.368;2023-04-01T03:45:51;9.57;;;5.05;;
10945;SDS011;5525;42.648;23.368;2023-04-01T03:48:19;10.15;;;5.72;;
10945;SDS011;5525;42.648;23.368;2023-04-01T03:50:46;11.48;;;6.20;;
10945;SDS011;5525;42.648;23.368;2023-04-01T03:53:14;9.35;;;5.10;;
10945;SDS011;5525;42.648;23.368;2023-04-01T03:55:41;10.70;;;5.60;;
10945;SDS011;5525;42.648;23.368;2023-04-01T03:58:08;7.93;;;5.20;;
10945;SDS011;5525;42.648;23.368;2023-04-01T04:00:34;8.27;;;5.05;;
10945;SDS011;5525;42.648;23.368;2023-04-01T04:03:02;6.30;;;4.63;;
10945;SDS011;5525;42.648;23.368;2023-04-01T04:05:29;8.80;;;5.13;;
10945;SDS011;5525;42.648;23.368;2023-04-01T04:07:56;8.75;;;5.38;;
10945;SDS011;5525;42.648;23.368;2023-04-01T04:10:24;9.65;;;6.15;;
10945;SDS011;5525;42.648;23.368;2023-04-01T04:12:51;9.95;;;6.43;;
10945;SDS011;5525;42.648;23.368;2023-04-01T04:15:18;12.10;;;6.45;;
10945;SDS011;5525;42.648;23.368;2023-04-01T04:17:45;13.15;;;6.78;;
10945;SDS011;5525;42.648;23.368;2023-04-01T04:20:12;8.48;;;6.03;;
10945;SDS011;5525;42.648;23.368;2023-04-01T04:22:38;7.80;;;5.45;;
10945;SDS011;5525;42.648;23.368;2023-04-01T04:25:06;8.48;;;6.05;;
10945;SDS011;5525;42.648;23.368;2023-04-01T04:27:34;7.82;;;5.55;;
10945;SDS011;5525;42.648;23.368;2023-04-01T04:30:01;7.55;;;5.20;;
10945;SDS011;5525;42.648;23.368;2023-04-01T04:32:29;9.15;;;5.85;;
10945;SDS011;5525;42.648;23.368;2023-04-01T04:34:56;8.30;;;5.10;;
10945;SDS011;5525;42.648;23.368;2023-04-01T04:37:23;9.85;;;5.28;;
10945;SDS011;5525;42.648;23.368;2023-04-01T04:39:50;9.88;;;5.20;;
10945;SDS011;5525;42.648;23.368;2023-04-01T04:42:17;8.02;;;4.38;;
10945;SDS011;5525;42.648;23.368;2023-04-01T04:44:45;6.88;;;4.22;;
10945;SDS011;5525;42.648;23.368;2023-04-01T04:47:12;7.20;;;4.20;;
10945;SDS011;5525;42.648;23.368;2023-04-01T04:49:39;6.53;;;4.20;;
10945;SDS011;5525;42.648;23.368;2023-04-01T04:52:06;10.15;;;4.28;;
10945;SDS011;5525;42.648;23.368;2023-04-01T04:54:32;5.50;;;4.20;;
10945;SDS011;5525;42.648;23.368;2023-04-01T04:56:59;8.95;;;4.20;;
10945;SDS011;5525;42.648;23.368;2023-04-01T04:59:26;7.93;;;4.63;;
10945;SDS011;5525;42.648;23.368;2023-04-01T05:01:54;9.75;;;4.35;;
10945;SDS011;5525;42.648;23.368;2023-04-01T05:04:20;10.98;;;5.55;;
10945;SDS011;5525;42.648;23.368;2023-04-01T05:06:47;10.77;;;7.65;;
10945;SDS011;5525;42.648;23.368;2023-04-01T05:09:14;7.40;;;5.38;;
10945;SDS011;5525;42.648;23.368;2023-04-01T05:11:41;8.98;;;6.15;;
10945;SDS011;5525;42.648;23.368;2023-04-01T05:14:11;7.03;;;4.97;;
10945;SDS011;5525;42.648;23.368;2023-04-01T05:16:38;10.65;;;5.88;;
10945;SDS011;5525;42.648;23.368;2023-04-01T05:19:06;8.82;;;5.32;;
10945;SDS011;5525;42.648;23.368;2023-04-01T05:21:33;10.98;;;5.70;;
10945;SDS011;5525;42.648;23.368;2023-04-01T05:24:00;9.70;;;6.07;;
10945;SDS011;5525;42.648;23.368;2023-04-01T05:26:27;8.43;;;6.65;;
10945;SDS011;5525;42.648;23.368;2023-04-01T05:28:53;12.68;;;8.13;;
10945;SDS011;5525;42.648;23.368;2023-04-01T05:31:20;10.18;;;7.78;;
10945;SDS011;5525;42.648;23.368;2023-04-01T05:33:49;9.70;;;6.88;;
10945;SDS011;5525;42.648;23.368;2023-04-01T05:36:17;9.80;;;6.35;;
10945;SDS011;5525;42.648;23.368;2023-04-01T05:38:43;12.65;;;5.93;;
10945;SDS011;5525;42.648;23.368;2023-04-01T05:41:10;8.23;;;5.35;;
10945;SDS011;5525;42.648;23.368;2023-04-01T05:43:37;9.15;;;5.35;;
10945;SDS011;5525;42.648;23.368;2023-04-01T05:46:05;10.23;;;5.95;;
10945;SDS011;5525;42.648;23.368;2023-04-01T05:48:32;14.73;;;7.13;;
10945;SDS011;5525;42.648;23.368;2023-04-01T05:51:00;25.92;;;7.32;;
10945;SDS011;5525;42.648;23.368;2023-04-01T05:53:28;8.90;;;6.10;;
10945;SDS011;5525;42.648;23.368;2023-04-01T05:55:54;8.68;;;5.15;;
10945;SDS011;5525;42.648;23.368;2023-04-01T05:58:21;8.45;;;5.03;;
10945;SDS011;5525;42.648;23.368;2023-04-01T06:00:48;6.88;;;4.13;;
10945;SDS011;5525;42.648;23.368;2023-04-01T06:03:14;6.38;;;4.22;;
10945;SDS011;5525;42.648;23.368;2023-04-01T06:05:42;8.98;;;4.75;;
10945;SDS011;5525;42.648;23.368;2023-04-01T06:08:10;7.70;;;4.88;;
10945;SDS011;5525;42.648;23.368;2023-04-01T06:10:49;8.98;;;5.15;;
10945;SDS011;5525;42.648;23.368;2023-04-01T06:13:29;11.00;;;5.45;;
10945;SDS011;5525;42.648;23.368;2023-04-01T06:16:10;9.70;;;5.70;;
10945;SDS011;5525;42.648;23.368;2023-04-01T06:18:49;31.13;;;6.43;;
10945;SDS011;5525;42.648;23.368;2023-04-01T06:21:45;20.38;;;5.65;;
10945;SDS011;5525;42.648;23.368;2023-04-01T06:24:28;9.18;;;5.20;;
10945;SDS011;5525;42.648;23.368;2023-04-01T06:27:10;9.07;;;4.65;;
10945;SDS011;5525;42.648;23.368;2023-04-01T06:29:49;11.95;;;4.80;;
10945;SDS011;5525;42.648;23.368;2023-04-01T06:32:40;10.00;;;4.72;;
10945;SDS011;5525;42.648;23.368;2023-04-01T06:35:21;8.70;;;4.35;;
10945;SDS011;5525;42.648;23.368;2023-04-01T06:38:09;8.68;;;4.72;;
10945;SDS011;5525;42.648;23.368;2023-04-01T06:41:00;8.27;;;4.63;;
10945;SDS011;5525;42.648;23.368;2023-04-01T06:43:51;6.78;;;4.57;;
10945;SDS011;5525;42.648;23.368;2023-04-01T06:46:28;9.10;;;5.10;;
10945;SDS011;5525;42.648;23.368;2023-04-01T06:49:03;11.32;;;5.75;;
10945;SDS011;5525;42.648;23.368;2023-04-01T06:51:42;14.63;;;7.10;;
10945;SDS011;5525;42.648;23.368;2023-04-01T06:54:17;13.30;;;5.90;;
10945;SDS011;5525;42.648;23.368;2023-04-01T06:56:48;9.25;;;6.43;;
10945;SDS011;5525;42.648;23.368;2023-04-01T06:59:22;11.30;;;5.90;;
10945;SDS011;5525;42.648;23.368;2023-04-01T07:01:53;10.23;;;5.53;;
10945;SDS011;5525;42.648;23.368;2023-04-01T07:04:24;11.45;;;5.65;;
10945;SDS011;5525;42.648;23.368;2023-04-01T07:06:57;8.73;;;5.60;;
10945;SDS011;5525;42.648;23.368;2023-04-01T07:09:27;8.27;;;5.30;;
10945;SDS011;5525;42.648;23.368;2023-04-01T07:11:59;8.77;;;5.70;;
10945;SDS011;5525;42.648;23.368;2023-04-01T07:14:30;10.32;;;5.20;;
10945;SDS011;5525;42.648;23.368;2023-04-01T07:17:03;12.60;;;5.70;;
10945;SDS011;5525;42.648;23.368;2023-04-01T07:19:36;9.63;;;5.50;;
10945;SDS011;5525;42.648;23.368;2023-04-01T07:22:12;6.38;;;5.05;;
10945;SDS011;5525;42.648;23.368;2023-04-01T07:24:47;10.57;;;5.97;;
10945;SDS011;5525;42.648;23.368;2023-04-01T07:27:15;9.10;;;6.32;;
10945;SDS011;5525;42.648;23.368;2023-04-01T07:29:43;10.02;;;5.80;;
10945;SDS011;5525;42.648;23.368;2023-04-01T07:32:13;12.23;;;5.38;;
10945;SDS011;5525;42.648;23.368;2023-04-01T07:34:50;9.45;;;5.70;;
10945;SDS011;5525;42.648;23.368;2023-04-01T07:37:25;7.05;;;5.18;;
10945;SDS011;5525;42.648;23.368;2023-04-01T07:39:58;16.45;;;6.07;;
10945;SDS011;5525;42.648;23.368;2023-04-01T07:42:38;9.95;;;5.80;;
10945;SDS011;5525;42.648;23.368;2023-04-01T07:45:17;8.25;;;5.35;;
10945;SDS011;5525;42.648;23.368;2023-04-01T07:47:56;30.38;;;7.00;;
10945;SDS011;5525;42.648;23.368;2023-04-01T07:50:34;10.73;;;5.65;;
10945;SDS011;5525;42.648;23.368;2023-04-01T07:53:08;16.00;;;5.93;;
10945;SDS011;5525;42.648;23.368;2023-04-01T07:55:45;11.63;;;5.50;;
10945;SDS011;5525;42.648;23.368;2023-04-01T07:58:18;11.50;;;5.40;;
10945;SDS011;5525;42.648;23.368;2023-04-01T08:00:56;12.43;;;5.50;;
10945;SDS011;5525;42.648;23.368;2023-04-01T08:03:38;9.35;;;5.00;;
10945;SDS011;5525;42.648;23.368;2023-04-01T08:06:16;11.07;;;5.05;;
10945;SDS011;5525;42.648;23.368;2023-04-01T08:08:52;10.43;;;4.93;;
10945;SDS011;5525;42.648;23.368;2023-04-01T08:11:29;22.25;;;6.05;;
10945;SDS011;5525;42.648;23.368;2023-04-01T08:14:08;10.73;;;5.15;;
10945;SDS011;5525;42.648;23.368;2023-04-01T08:16:46;14.68;;;5.38;;
10945;SDS011;5525;42.648;23.368;2023-04-01T08:19:25;8.73;;;5.32;;
10945;SDS011;5525;42.648;23.368;2023-04-01T08:22:03;10.05;;;4.97;;
10945;SDS011;5525;42.648;23.368;2023-04-01T08:24:38;7.80;;;4.60;;
10945;SDS011;5525;42.648;23.368;2023-04-01T08:27:09;9.25;;;4.60;;
10945;SDS011;5525;42.648;23.368;2023-04-01T08:29:42;6.32;;;4.22;;
10945;SDS011;5525;42.648;23.368;2023-04-01T08:32:17;10.90;;;4.18;;
10945;SDS011;5525;42.648;23.368;2023-04-01T08:34:51;11.40;;;5.00;;
10945;SDS011;5525;42.648;23.368;2023-04-01T08:37:25;9.55;;;4.70;;
10945;SDS011;5525;42.648;23.368;2023-04-01T08:39:57;9.93;;;4.90;;
10945;SDS011;5525;42.648;23.368;2023-04-01T08:45:21;8.95;;;5.07;;
10945;SDS011;5525;42.648;23.368;2023-04-01T08:48:22;12.45;;;5.40;;
10945;SDS011;5525;42.648;23.368;2023-04-01T08:54:04;15.15;;;5.88;;
10945;SDS011;5525;42.648;23.368;2023-04-01T08:56:47;9.82;;;5.00;;
10945;SDS011;5525;42.648;23.368;2023-04-01T08:59:24;14.63;;;5.75;;
10945;SDS011;5525;42.648;23.368;2023-04-01T09:02:15;11.80;;;4.70;;
10945;SDS011;5525;42.648;23.368;2023-04-01T09:05:06;11.63;;;4.13;;
10945;SDS011;5525;42.648;23.368;2023-04-01T09:07:51;8.57;;;4.32;;
10945;SDS011;5525;42.648;23.368;2023-04-01T09:10:39;7.85;;;4.32;;
10945;SDS011;5525;42.648;23.368;2023-04-01T09:13:20;5.60;;;4.03;;
10945;SDS011;5525;42.648;23.368;2023-04-01T09:21:57;7.20;;;4.25;;
10945;SDS011;5525;42.648;23.368;2023-04-01T09:24:58;6.85;;;3.20;;
10945;SDS011;5525;42.648;23.368;2023-04-01T09:27:43;8.20;;;4.32;;
10945;SDS011;5525;42.648;23.368;2023-04-01T09:30:19;7.20;;;3.97;;
10945;SDS011;5525;42.648;23.368;2023-04-01T09:36:12;9.75;;;4.10;;
10945;SDS011;5525;42.648;23.368;2023-04-01T09:38:55;12.75;;;4.10;;
10945;SDS011;5525;42.648;23.368;2023-04-01T09:41:27;7.97;;;3.30;;
10945;SDS011;5525;42.648;23.368;2023-04-01T09:44:03;6.53;;;3.35;;
10945;SDS011;5525;42.648;23.368;2023-04-01T09:46:39;7.78;;;3.30;;
10945;SDS011;5525;42.648;23.368;2023-04-01T09:52:20;8.63;;;3.35;;
10945;SDS011;5525;42.648;23.368;2023-04-01T09:55:00;6.88;;;3.42;;
10945;SDS011;5525;42.648;23.368;2023-04-01T09:57:57;6.82;;;3.80;;
10945;SDS011;5525;42.648;23.368;2023-04-01T10:00:52;7.13;;;3.35;;
10945;SDS011;5525;42.648;23.368;2023-04-01T10:06:49;6.88;;;3.55;;
10945;SDS011;5525;42.648;23.368;2023-04-01T10:12:42;6.53;;;3.65;;
10945;SDS011;5525;42.648;23.368;2023-04-01T10:15:59;6.00;;;3.65;;
10945;SDS011;5525;42.648;23.368;2023-04-01T10:18:46;6.13;;;3.55;;
10945;SDS011;5525;42.648;23.368;2023-04-01T10:27:47;5.00;;;3.45;;
10945;SDS011;5525;42.648;23.368;2023-04-01T10:33:26;5.53;;;3.75;;
10945;SDS011;5525;42.648;23.368;2023-04-01T10:36:20;7.53;;;3.45;;
10945;SDS011;5525;42.648;23.368;2023-04-01T10:42:07;7.93;;;3.78;;
10945;SDS011;5525;42.648;23.368;2023-04-01T10:47:56;7.93;;;4.00;;
10945;SDS011;5525;42.648;23.368;2023-04-01T10:50:51;5.25;;;3.30;;
10945;SDS011;5525;42.648;23.368;2023-04-01T10:53:40;4.90;;;3.45;;
10945;SDS011;5525;42.648;23.368;2023-04-01T11:02:12;8.20;;;3.60;;
10945;SDS011;5525;42.648;23.368;2023-04-01T11:11:48;7.38;;;2.75;;
10945;SDS011;5525;42.648;23.368;2023-04-01T11:20:40;4.47;;;2.10;;
10945;SDS011;5525;42.648;23.368;2023-04-01T11:23:39;5.00;;;2.63;;
10945;SDS011;5525;42.648;23.368;2023-04-01T11:26:37;9.00;;;2.95;;
10945;SDS011;5525;42.648;23.368;2023-04-01T11:32:25;4.65;;;1.83;;
10945;SDS011;5525;42.648;23.368;2023-04-01T11:35:20;7.03;;;2.42;;
10945;SDS011;5525;42.648;23.368;2023-04-01T11:37:57;7.82;;;2.50;;
10945;SDS011;5525;42.648;23.368;2023-04-01T11:40:35;5.22;;;2.03;;
10945;SDS011;5525;42.648;23.368;2023-04-01T11:43:10;8.45;;;2.35;;
10945;SDS011;5525;42.648;23.368;2023-04-01T11:45:46;5.45;;;2.05;;
10945;SDS011;5525;42.648;23.368;2023-04-01T11:48:19;4.18;;;2.05;;
10945;SDS011;5525;42.648;23.368;2023-04-01T11:51:00;3.78;;;2.20;;
10945;SDS011;5525;42.648;23.368;2023-04-01T11:53:41;4.78;;;2.17;;
10945;SDS011;5525;42.648;23.368;2023-04-01T11:56:23;4.43;;;2.30;;
10945;SDS011;5525;42.648;23.368;2023-04-01T11:59:22;4.10;;;2.35;;
10945;SDS011;5525;42.648;23.368;2023-04-01T12:02:09;4.50;;;2.50;;
10945;SDS011;5525;42.648;23.368;2023-04-01T12:04:48;8.95;;;2.58;;
10945;SDS011;5525;42.648;23.368;2023-04-01T12:07:23;4.22;;;2.65;;
10945;SDS011;5525;42.648;23.368;2023-04-01T12:10:04;6.60;;;3.05;;
10945;SDS011;5525;42.648;23.368;2023-04-01T12:12:41;7.03;;;3.53;;
10945;SDS011;5525;42.648;23.368;2023-04-01T12:15:23;6.78;;;3.35;;
10945;SDS011;5525;42.648;23.368;2023-04-01T12:17:59;7.97;;;3.53;;
10945;SDS011;5525;42.648;23.368;2023-04-01T12:20:39;8.45;;;3.70;;
10945;SDS011;5525;42.648;23.368;2023-04-01T12:23:21;6.72;;;3.15;;
10945;SDS011;5525;42.648;23.368;2023-04-01T12:26:07;5.70;;;2.78;;
10945;SDS011;5525;42.648;23.368;2023-04-01T12:28:48;9.57;;;5.85;;
10945;SDS011;5525;42.648;23.368;2023-04-01T12:31:28;8.82;;;5.70;;
10945;SDS011;5525;42.648;23.368;2023-04-01T12:34:11;7.32;;;3.80;;
10945;SDS011;5525;42.648;23.368;2023-04-01T12:36:56;5.93;;;3.00;;
10945;SDS011;5525;42.648;23.368;2023-04-01T12:39:44;7.00;;;3.00;;
10945;SDS011;5525;42.648;23.368;2023-04-01T12:42:30;5.10;;;3.40;;
10945;SDS011;5525;42.648;23.368;2023-04-01T12:45:19;7.70;;;3.58;;
10945;SDS011;5525;42.648;23.368;2023-04-01T12:48:11;5.68;;;3.88;;
10945;SDS011;5525;42.648;23.368;2023-04-01T12:51:05;5.60;;;3.47;;
10945;SDS011;5525;42.648;23.368;2023-04-01T12:53:50;6.07;;;3.90;;
10945;SDS011;5525;42.648;23.368;2023-04-01T12:56:44;4.30;;;3.45;;
10945;SDS011;5525;42.648;23.368;2023-04-01T12:59:26;4.70;;;3.28;;
10945;SDS011;5525;42.648;23.368;2023-04-01T13:02:12;6.03;;;3.20;;
10945;SDS011;5525;42.648;23.368;2023-04-01T13:05:10;6.78;;;4.00;;
10945;SDS011;5525;42.648;23.368;2023-04-01T13:07:50;6.47;;;3.65;;
10945;SDS011;5525;42.648;23.368;2023-04-01T13:10:32;5.85;;;3.47;;
10945;SDS011;5525;42.648;23.368;2023-04-01T13:13:21;6.70;;;3.40;;
10945;SDS011;5525;42.648;23.368;2023-04-01T13:16:02;5.30;;;3.63;;
10945;SDS011;5525;42.648;23.368;2023-04-01T13:18:39;6.30;;;3.70;;
10945;SDS011;5525;42.648;23.368;2023-04-01T13:21:20;5.25;;;3.70;;
10945;SDS011;5525;42.648;23.368;2023-04-01T13:23:55;5.57;;;3.75;;
10945;SDS011;5525;42.648;23.368;2023-04-01T13:26:33;5.13;;;2.63;;
10945;SDS011;5525;42.648;23.368;2023-04-01T13:29:05;2.72;;;2.25;;
10945;SDS011;5525;42.648;23.368;2023-04-01T13:31:44;2.15;;;1.88;;
10945;SDS011;5525;42.648;23.368;2023-04-01T13:34:24;2.70;;;1.85;;
10945;SDS011;5525;42.648;23.368;2023-04-01T13:37:02;2.28;;;1.60;;
10945;SDS011;5525;42.648;23.368;2023-04-01T13:39:44;6.65;;;1.60;;
10945;SDS011;5525;42.648;23.368;2023-04-01T13:42:21;2.22;;;1.58;;
10945;SDS011;5525;42.648;23.368;2023-04-01T13:44:54;3.00;;;2.60;;
10945;SDS011;5525;42.648;23.368;2023-04-01T13:47:33;4.00;;;2.67;;
10945;SDS011;5525;42.648;23.368;2023-04-01T13:53:29;3.45;;;1.92;;
10945;SDS011;5525;42.648;23.368;2023-04-01T13:56:08;2.80;;;2.00;;
10945;SDS011;5525;42.648;23.368;2023-04-01T13:58:48;2.33;;;1.90;;
10945;SDS011;5525;42.648;23.368;2023-04-01T14:01:27;3.17;;;2.03;;
10945;SDS011;5525;42.648;23.368;2023-04-01T14:04:06;3.47;;;1.77;;
10945;SDS011;5525;42.648;23.368;2023-04-01T14:06:57;2.88;;;1.30;;
10945;SDS011;5525;42.648;23.368;2023-04-01T14:09:41;2.60;;;1.80;;
10945;SDS011;5525;42.648;23.368;2023-04-01T14:12:21;4.93;;;2.25;;
10945;SDS011;5525;42.648;23.368;2023-04-01T14:14:59;6.03;;;3.78;;
10945;SDS011;5525;42.648;23.368;2023-04-01T14:17:49;6.05;;;4.22;;
10945;SDS011;5525;42.648;23.368;2023-04-01T14:20:34;6.43;;;4.45;;
10945;SDS011;5525;42.648;23.368;2023-04-01T14:23:16;7.38;;;4.80;;
10945;SDS011;5525;42.648;23.368;2023-04-01T14:26:09;6.05;;;4.32;;
10945;SDS011;5525;42.648;23.368;2023-04-01T14:28:48;7.07;;;4.32;;
10945;SDS011;5525;42.648;23.368;2023-04-01T14:31:31;5.45;;;4.03;;
10945;SDS011;5525;42.648;23.368;2023-04-01T14:34:09;9.93;;;4.55;;
10945;SDS011;5525;42.648;23.368;2023-04-01T14:36:50;5.63;;;3.67;;
10945;SDS011;5525;42.648;23.368;2023-04-01T14:39:33;5.38;;;3.40;;
10945;SDS011;5525;42.648;23.368;2023-04-01T14:42:28;4.72;;;4.03;;
10945;SDS011;5525;42.648;23.368;2023-04-01T14:45:15;4.40;;;3.10;;
10945;SDS011;5525;42.648;23.368;2023-04-01T14:47:56;4.40;;;3.08;;
10945;SDS011;5525;42.648;23.368;2023-04-01T14:50:27;4.00;;;3.00;;
10945;SDS011;5525;42.648;23.368;2023-04-01T14:52:56;4.50;;;3.03;;
10945;SDS011;5525;42.648;23.368;2023-04-01T14:55:29;3.45;;;2.85;;
10945;SDS011;5525;42.648;23.368;2023-04-01T14:58:00;5.50;;;2.95;;
10945;SDS011;5525;42.648;23.368;2023-04-01T15:00:47;5.57;;;3.40;;
10945;SDS011;5525;42.648;23.368;2023-04-01T15:03:21;5.72;;;2.92;;
10945;SDS011;5525;42.648;23.368;2023-04-01T15:05:54;5.75;;;2.92;;
10945;SDS011;5525;42.648;23.368;2023-04-01T15:08:42;3.22;;;2.63;;
10945;SDS011;5525;42.648;23.368;2023-04-01T15:11:33;4.07;;;2.78;;
10945;SDS011;5525;42.648;23.368;2023-04-01T15:14:23;5.25;;;2.70;;
10945;SDS011;5525;42.648;23.368;2023-04-01T15:17:05;3.78;;;2.90;;
10945;SDS011;5525;42.648;23.368;2023-04-01T15:19:50;7.05;;;3.28;;
10945;SDS011;5525;42.648;23.368;2023-04-01T15:22:38;6.15;;;3.95;;
10945;SDS011;5525;42.648;23.368;2023-04-01T15:25:17;8.68;;;3.40;;
10945;SDS011;5525;42.648;23.368;2023-04-01T15:27:55;5.65;;;3.92;;
10945;SDS011;5525;42.648;23.368;2023-04-01T15:30:32;4.45;;;3.50;;
10945;SDS011;5525;42.648;23.368;2023-04-01T15:33:13;4.32;;;3.75;;
10945;SDS011;5525;42.648;23.368;2023-04-01T15:35:50;7.05;;;3.75;;
10945;SDS011;5525;42.648;23.368;2023-04-01T15:38:30;5.60;;;3.63;;
10945;SDS011;5525;42.648;23.368;2023-04-01T15:41:03;33.08;;;21.52;;
10945;SDS011;5525;42.648;23.368;2023-04-01T15:43:41;10.63;;;5.80;;
10945;SDS011;5525;42.648;23.368;2023-04-01T15:46:14;12.77;;;9.48;;
10945;SDS011;5525;42.648;23.368;2023-04-01T15:48:50;10.35;;;7.78;;
10945;SDS011;5525;42.648;23.368;2023-04-01T15:51:31;8.73;;;5.28;;
10945;SDS011;5525;42.648;23.368;2023-04-01T15:57:10;3.08;;;1.63;;
10945;SDS011;5525;42.648;23.368;2023-04-01T15:59:54;3.13;;;1.63;;
10945;SDS011;5525;42.648;23.368;2023-04-01T16:02:33;1.80;;;1.70;;
10945;SDS011;5525;42.648;23.368;2023-04-01T16:05:08;2.30;;;1.90;;
10945;SDS011;5525;42.648;23.368;2023-04-01T16:07:54;2.60;;;2.22;;
10945;SDS011;5525;42.648;23.368;2023-04-01T16:10:31;3.55;;;2.70;;
10945;SDS011;5525;42.648;23.368;2023-04-01T16:13:15;3.22;;;2.55;;
10945;SDS011;5525;42.648;23.368;2023-04-01T16:15:53;4.50;;;2.83;;
10945;SDS011;5525;42.648;23.368;2023-04-01T16:21:33;3.72;;;3.20;;
10945;SDS011;5525;42.648;23.368;2023-04-01T16:24:05;3.55;;;3.20;;
10945;SDS011;5525;42.648;23.368;2023-04-01T16:26:42;5.20;;;3.50;;
10945;SDS011;5525;42.648;23.368;2023-04-01T16:29:17;4.88;;;3.65;;
10945;SDS011;5525;42.648;23.368;2023-04-01T16:31:54;3.90;;;3.10;;
10945;SDS011;5525;42.648;23.368;2023-04-01T16:34:27;4.03;;;3.53;;
10945;SDS011;5525;42.648;23.368;2023-04-01T16:37:03;4.00;;;3.60;;
10945;SDS011;5525;42.648;23.368;2023-04-01T16:39:41;3.40;;;3.10;;
10945;SDS011;5525;42.648;23.368;2023-04-01T16:42:17;3.67;;;3.20;;
10945;SDS011;5525;42.648;23.368;2023-04-01T16:44:53;3.10;;;2.70;;
10945;SDS011;5525;42.648;23.368;2023-04-01T16:47:29;3.35;;;2.75;;